Time;durP1;ratioP1;P1;durP2;ratioP2;P2;SDS_P1;SDS_P2;PMS_P1;PMS_P2;Temp;Humidity;BMP_temperature;BMP_pressure;BME280_temperature;BME280_humidity;BME280_pressure;Samples;Min_cycle;Max_cycle;Signal;HPM_P1;HPM_P2
2023/08/20 00:02:19;;;;;;;1.30;0.63;;;;;;;19.75;73.88;102138.31;5017842;28;99082;-26
2023/08/20 00:04:47;;;;;;;3.90;0.50;;;;;;;19.82;74.16;102150.59;5016619;28;96942;-26
2023/08/20 00:07:12;;;;;;;0.52;0.30;;;;;;;19.78;74.33;102138.94;5016455;28;96851;-27
2023/08/20 00:09:38;;;;;;;4.55;0.77;;;;;;;19.79;74.20;102148.09;5016941;28;99412;-27
2023/08/20 00:12:05;;;;;;;1.20;0.30;;;;;;;19.77;73.92;102147.34;5017434;28;97936;-27
2023/08/20 00:14:58;;;;;;;3.72;0.60;;;;;;;19.81;74.65;102146.09;5017381;28;96594;-26
2023/08/20 00:17:26;;;;;;;2.97;0.70;;;;;;;19.81;74.50;102144.22;5016243;28;97033;-26
2023/08/20 00:19:53;;;;;;;4.85;0.82;;;;;;;19.73;74.45;102135.69;5017338;28;98018;-27
2023/08/20 00:22:19;;;;;;;0.80;0.50;;;;;;;19.73;74.48;102142.09;5015892;28;101071;-27
2023/08/20 00:24:45;;;;;;;3.45;0.73;;;;;;;19.74;74.65;102148.47;5016252;28;96524;-26
2023/08/20 00:27:10;;;;;;;4.85;0.73;;;;;;;19.77;74.72;102159.19;5016490;28;96845;-26
2023/08/20 00:29:36;;;;;;;4.18;0.80;;;;;;;19.78;74.71;102168.31;5017231;28;97861;-27
2023/08/20 00:32:01;;;;;;;2.63;0.50;;;;;;;19.77;74.72;102156.44;5016981;28;99152;-26
2023/08/20 00:34:26;;;;;;;3.42;0.60;;;;;;;19.76;74.71;102164.81;5016936;28;96563;-28
2023/08/20 00:36:52;;;;;;;4.28;0.68;;;;;;;19.73;74.69;102157.69;5017244;28;96836;-26
2023/08/20 00:39:17;;;;;;;0.95;0.52;;;;;;;19.76;74.98;102182.22;5017213;28;97382;-26
2023/08/20 00:41:42;;;;;;;1.88;0.45;;;;;;;19.73;74.75;102186.09;5017220;28;97840;-26
2023/08/20 00:44:08;;;;;;;2.42;0.50;;;;;;;19.73;74.97;102190.69;5015932;28;96723;-26
2023/08/20 00:46:33;;;;;;;1.48;0.50;;;;;;;19.69;74.82;102187.31;5017745;28;96821;-27
2023/08/20 00:48:59;;;;;;;2.42;0.55;;;;;;;19.66;75.52;102183.88;5016927;28;97957;-27
2023/08/20 00:51:25;;;;;;;3.30;1.08;;;;;;;19.68;74.93;102192.91;5017355;28;97774;-26
2023/08/20 00:53:51;;;;;;;3.40;0.57;;;;;;;19.68;75.18;102185.53;5015794;28;96635;-26
2023/08/20 00:56:16;;;;;;;0.95;0.45;;;;;;;19.72;75.34;102186.19;5015725;28;96682;-26
2023/08/20 00:58:42;;;;;;;2.83;0.70;;;;;;;19.68;75.29;102180.03;5015868;28;98954;-26
2023/08/20 01:01:08;;;;;;;2.45;1.02;;;;;;;19.74;75.26;102192.44;5015359;28;101003;-26
2023/08/20 01:03:33;;;;;;;1.13;0.50;;;;;;;19.64;75.39;102189.50;5016868;28;96668;-27
2023/08/20 01:06:15;;;;;;;2.67;0.90;;;;;;;19.66;75.81;102193.03;5017101;28;96799;-28
2023/08/20 01:08:40;;;;;;;2.97;0.52;;;;;;;19.66;75.73;102200.38;5016582;28;98140;-27
2023/08/20 01:11:29;;;;;;;3.53;0.85;;;;;;;19.62;75.31;102187.88;5014763;28;100976;-26
2023/08/20 01:13:55;;;;;;;2.95;0.65;;;;;;;19.61;75.61;102186.13;5015367;28;96651;-27
2023/08/20 01:16:20;;;;;;;5.07;0.75;;;;;;;19.60;75.65;102192.63;5017316;28;96777;-27
2023/08/20 01:18:47;;;;;;;2.60;0.55;;;;;;;19.56;75.71;102191.97;5016474;28;97338;-26
2023/08/20 01:21:36;;;;;;;1.77;0.73;;;;;;;19.65;76.47;102212.38;5014939;28;101149;-26
2023/08/20 01:24:25;;;;;;;1.60;0.35;;;;;;;19.56;76.05;102194.72;5014698;28;96575;-26
2023/08/20 01:26:59;;;;;;;2.25;0.75;;;;;;;19.59;76.37;102208.22;5015238;28;96712;-27
2023/08/20 01:29:26;;;;;;;5.45;0.57;;;;;;;19.58;76.15;102205.59;5016433;28;98094;-27
2023/08/20 01:31:54;;;;;;;4.43;0.70;;;;;;;19.55;76.26;102200.38;5014656;28;101033;-27
2023/08/20 01:34:21;;;;;;;4.07;0.80;;;;;;;19.59;76.25;102205.47;5015053;28;97041;-26
2023/08/20 01:36:46;;;;;;;1.35;0.52;;;;;;;19.57;76.18;102201.09;5016930;28;96767;-27
2023/08/20 01:39:12;;;;;;;3.25;0.70;;;;;;;19.60;75.97;102203.63;5014658;28;99661;-26
2023/08/20 01:41:37;;;;;;;1.50;0.63;;;;;;;19.55;76.32;102198.47;5016217;28;98711;-27
2023/08/20 01:44:03;;;;;;;1.17;0.50;;;;;;;19.51;76.29;102200.56;5016435;28;96538;-26
2023/08/20 01:46:28;;;;;;;1.70;0.57;;;;;;;19.53;76.44;102214.22;5016143;28;96880;-26
2023/08/20 01:48:54;;;;;;;1.45;0.68;;;;;;;19.49;76.49;102207.19;5015696;28;97964;-26
2023/08/20 01:51:19;;;;;;;1.77;0.55;;;;;;;19.46;76.86;102204.69;5014944;28;97806;-26
2023/08/20 01:53:44;;;;;;;2.35;0.65;;;;;;;19.45;76.64;102208.41;5016396;28;96492;-26
2023/08/20 01:56:13;;;;;;;2.83;0.55;;;;;;;19.42;76.80;102205.91;5016281;28;96843;-27
2023/08/20 01:58:39;;;;;;;3.92;0.73;;;;;;;19.38;76.66;102197.03;5014474;28;100941;-26
2023/08/20 02:01:05;;;;;;;1.13;0.50;;;;;;;19.38;77.29;102205.28;5015581;28;97327;-26
2023/08/20 02:03:31;;;;;;;2.63;0.75;;;;;;;19.37;76.86;102200.78;5016189;28;96578;-26
2023/08/20 02:05:56;;;;;;;4.13;0.68;;;;;;;19.36;76.90;102199.03;5014875;28;96829;-26
2023/08/20 02:08:21;;;;;;;2.45;0.60;;;;;;;19.35;77.26;102204.63;5015914;28;97966;-26
2023/08/20 02:10:47;;;;;;;0.80;0.38;;;;;;;19.31;77.09;102198.53;5015573;28;98023;-26
2023/08/20 02:13:12;;;;;;;2.25;0.52;;;;;;;19.25;77.23;102191.59;5015509;28;96612;-26
2023/08/20 02:15:38;;;;;;;3.50;0.40;;;;;;;19.24;77.31;102194.50;5015126;28;96802;-26
2023/08/20 02:18:04;;;;;;;1.92;0.73;;;;;;;19.23;77.62;102199.09;5015588;28;97586;-27
2023/08/20 02:20:29;;;;;;;1.23;0.38;;;;;;;19.16;77.84;102184.06;5014827;28;97743;-26
2023/08/20 02:22:55;;;;;;;2.30;0.75;;;;;;;19.16;77.62;102191.44;5015534;28;96495;-28
2023/08/20 02:25:20;;;;;;;2.65;0.80;;;;;;;19.15;78.18;102203.44;5015539;28;96839;-26
2023/08/20 02:27:45;;;;;;;1.23;0.50;;;;;;;19.06;77.96;102194.88;5015290;28;99237;-27
2023/08/20 02:30:13;;;;;;;1.02;0.43;;;;;;;19.02;77.98;102203.47;5015884;28;97308;-26
2023/08/20 02:32:39;;;;;;;2.90;0.57;;;;;;;19.00;78.26;102202.72;4997756;28;96615;-26
2023/08/20 02:35:05;;;;;;;1.58;0.70;;;;;;;18.99;78.36;102203.72;5014132;28;96947;-28
2023/08/20 02:37:31;;;;;;;1.60;0.57;;;;;;;19.01;78.11;102215.47;5013146;28;100723;-26
2023/08/20 02:39:57;;;;;;;1.42;0.32;;;;;;;19.00;78.25;102211.84;5013750;28;101102;-26
2023/08/20 02:42:22;;;;;;;1.55;0.60;;;;;;;18.99;78.38;102218.31;5015582;28;96536;-26
2023/08/20 02:44:48;;;;;;;4.15;0.90;;;;;;;18.99;78.01;102207.31;5015509;28;97085;-26
2023/08/20 02:47:13;;;;;;;2.50;0.77;;;;;;;19.01;78.02;102208.09;5015345;28;97985;-27
2023/08/20 02:49:38;;;;;;;3.40;0.52;;;;;;;18.99;78.40;102210.06;5014006;28;98822;-26
2023/08/20 02:52:04;;;;;;;2.05;0.47;;;;;;;18.96;78.05;102204.81;5015296;28;96491;-27
2023/08/20 02:54:31;;;;;;;3.45;0.55;;;;;;;18.87;78.79;102209.13;5015525;28;96845;-26
2023/08/20 02:56:58;;;;;;;2.45;0.90;;;;;;;18.95;78.32;102218.66;5015006;28;98022;-26
2023/08/20 02:59:23;;;;;;;1.55;0.45;;;;;;;18.94;78.24;102217.78;5014789;28;97917;-26
2023/08/20 03:01:49;;;;;;;1.23;0.40;;;;;;;18.94;78.60;102230.66;5014751;28;96429;-26
2023/08/20 03:04:14;;;;;;;3.08;0.68;;;;;;;18.96;78.50;102234.16;5015208;28;96763;-26
2023/08/20 03:06:39;;;;;;;2.97;0.55;;;;;;;18.96;78.81;102226.78;5013535;28;99407;-26
2023/08/20 03:09:05;;;;;;;2.47;0.60;;;;;;;18.89;78.70;102228.25;5014990;28;97231;-26
2023/08/20 03:11:31;;;;;;;1.40;0.57;;;;;;;18.91;78.57;102231.75;5013291;28;96580;-26
2023/08/20 03:13:56;;;;;;;4.68;0.80;;;;;;;18.91;78.34;102231.75;5014845;28;96822;-26
2023/08/20 03:16:21;;;;;;;0.70;0.30;;;;;;;18.91;79.02;102234.50;5013078;28;101141;-26
2023/08/20 03:18:47;;;;;;;1.10;0.40;;;;;;;18.86;78.69;102220.25;5015093;28;97350;-26
2023/08/20 03:21:12;;;;;;;2.70;0.63;;;;;;;18.90;78.78;102224.50;5015000;28;96442;-27
2023/08/20 03:23:38;;;;;;;1.08;0.60;;;;;;;18.86;79.45;102223.84;5014673;28;96839;-28
2023/08/20 03:26:03;;;;;;;1.60;0.50;;;;;;;18.83;79.25;102221.34;5014086;28;97188;-26
2023/08/20 03:28:28;;;;;;;1.50;0.63;;;;;;;18.85;78.86;102232.19;5014043;28;99148;-26
2023/08/20 03:30:53;;;;;;;1.23;0.73;;;;;;;18.80;79.28;102227.03;5014859;28;96514;-26
2023/08/20 03:33:19;;;;;;;2.08;0.50;;;;;;;18.81;79.07;102222.47;5014671;28;96805;-26
2023/08/20 03:35:45;;;;;;;3.53;0.75;;;;;;;18.77;79.18;102232.78;5014288;28;98841;-27
2023/08/20 03:38:11;;;;;;;2.17;0.65;;;;;;;18.72;79.82;102225.84;5012698;28;100804;-27
2023/08/20 03:40:36;;;;;;;2.08;0.65;;;;;;;18.75;79.62;102234.72;5014889;28;96491;-26
2023/08/20 03:43:01;;;;;;;0.47;0.47;;;;;;;18.75;79.39;102236.59;5015194;28;96799;-27
2023/08/20 03:45:29;;;;;;;5.47;0.88;;;;;;;18.70;79.12;102227.81;5014498;28;98252;-26
2023/08/20 03:47:55;;;;;;;2.28;0.70;;;;;;;18.70;79.18;102230.56;5012828;28;100756;-28
2023/08/20 03:50:20;;;;;;;2.60;0.80;;;;;;;18.69;79.63;102235.19;5014252;28;96433;-27
2023/08/20 03:52:45;;;;;;;2.83;0.73;;;;;;;18.66;79.55;102228.06;5014730;28;96742;-26
2023/08/20 03:55:11;;;;;;;2.15;0.43;;;;;;;18.65;79.56;102223.53;5014058;28;99280;-26
2023/08/20 03:57:36;;;;;;;0.98;0.40;;;;;;;18.61;79.70;102215.66;5014048;28;99130;-28
2023/08/20 04:00:03;;;;;;;1.33;0.38;;;;;;;18.61;80.18;102229.38;5014563;28;96636;-27
2023/08/20 04:02:28;;;;;;;1.08;0.40;;;;;;;18.54;80.33;102223.44;5012928;28;96917;-27
2023/08/20 04:04:53;;;;;;;1.05;0.50;;;;;;;18.54;80.21;102228.94;5013869;28;99325;-26
2023/08/20 04:07:19;;;;;;;2.47;1.10;;;;;;;18.48;80.54;102218.44;5014493;28;97500;-26
2023/08/20 04:09:44;;;;;;;4.13;0.63;;;;;;;18.48;80.35;102237.63;5014760;28;96648;-26
2023/08/20 04:12:09;;;;;;;1.33;0.65;;;;;;;18.39;80.29;102230.94;5014133;28;96871;-31
2023/08/20 04:14:35;;;;;;;0.85;0.43;;;;;;;18.39;80.13;102233.69;5012678;28;97996;-27
2023/08/20 04:17:00;;;;;;;3.55;0.63;;;;;;;18.41;80.53;102242.69;5014023;28;97992;-26
2023/08/20 04:19:26;;;;;;;2.50;0.60;;;;;;;18.35;80.83;102245.00;5014392;28;96532;-26
2023/08/20 04:21:51;;;;;;;1.40;0.47;;;;;;;18.36;80.90;102260.47;5013994;28;97990;-26
2023/08/20 04:24:16;;;;;;;2.97;0.60;;;;;;;18.36;80.64;102261.34;5014042;28;97901;-26
2023/08/20 04:26:43;;;;;;;2.65;0.57;;;;;;;18.35;80.97;102264.19;5012433;28;101038;-26
2023/08/20 04:29:09;;;;;;;2.35;0.68;;;;;;;18.30;81.27;102252.69;5012700;28;96648;-27
2023/08/20 04:31:34;;;;;;;1.73;0.57;;;;;;;18.29;81.16;102260.03;5014611;28;96734;-26
2023/08/20 04:33:59;;;;;;;1.08;0.65;;;;;;;18.30;81.09;102266.41;5013730;28;99304;-26
2023/08/20 04:36:25;;;;;;;2.03;0.63;;;;;;;18.28;81.20;102271.09;5013820;28;97330;-26
2023/08/20 04:38:50;;;;;;;2.25;0.77;;;;;;;18.30;81.23;102280.13;5012540;28;96951;-27
2023/08/20 04:41:16;;;;;;;1.70;0.60;;;;;;;18.20;81.37;102267.06;5013954;28;96758;-26
2023/08/20 04:43:41;;;;;;;0.98;0.80;;;;;;;18.17;81.61;102264.53;5014366;28;97448;-26
2023/08/20 04:46:06;;;;;;;1.25;0.55;;;;;;;18.19;81.36;102273.53;5016839;28;99149;-27
2023/08/20 04:48:32;;;;;;;3.00;0.75;;;;;;;18.19;81.91;102276.28;5017827;28;96553;-26
2023/08/20 04:50:58;;;;;;;4.18;1.02;;;;;;;18.15;81.97;102282.97;5017343;28;96770;-26
2023/08/20 04:53:24;;;;;;;1.95;0.35;;;;;;;18.13;81.52;102273.09;5015423;28;99568;-27
2023/08/20 04:55:49;;;;;;;3.58;0.70;;;;;;;18.16;81.65;102279.25;5017153;28;97828;-26
2023/08/20 04:58:14;;;;;;;4.45;0.70;;;;;;;18.16;81.66;102278.34;5016679;28;96661;-26
2023/08/20 05:00:40;;;;;;;1.65;1.10;;;;;;;18.17;81.92;102272.75;5017335;28;96784;-26
2023/08/20 05:03:05;;;;;;;1.52;0.75;;;;;;;18.13;81.47;102271.22;4998126;28;98931;-27
2023/08/20 05:05:30;;;;;;;5.93;0.85;;;;;;;18.11;81.96;102273.19;5016847;28;97789;-28
2023/08/20 05:07:56;;;;;;;3.80;0.73;;;;;;;18.09;82.49;102277.94;5016996;28;96663;-26
2023/08/20 05:10:21;;;;;;;0.95;0.63;;;;;;;18.07;82.48;102271.66;5015301;28;96927;-26
2023/08/20 05:12:47;;;;;;;1.17;0.80;;;;;;;18.10;81.86;102279.66;5016657;28;97594;-27
2023/08/20 05:15:12;;;;;;;1.75;0.90;;;;;;;18.10;82.90;102284.28;5016168;28;97795;-27
2023/08/20 05:17:39;;;;;;;2.13;0.55;;;;;;;18.14;82.73;102296.78;5016859;28;96467;-26
2023/08/20 05:20:05;;;;;;;1.60;0.70;;;;;;;18.14;81.93;102285.78;5015737;28;96786;-26
2023/08/20 05:22:30;;;;;;;1.83;0.77;;;;;;;18.13;82.53;102279.44;5016573;28;98037;-26
2023/08/20 05:24:56;;;;;;;3.28;0.90;;;;;;;18.19;82.58;102287.25;5016294;28;98782;-27
2023/08/20 05:27:21;;;;;;;2.00;0.90;;;;;;;18.20;82.24;102278.03;5016153;28;96703;-26
2023/08/20 05:29:46;;;;;;;0.55;0.35;;;;;;;18.20;82.33;102286.25;5016998;28;96759;-27
2023/08/20 05:32:12;;;;;;;1.95;0.65;;;;;;;18.25;82.18;102285.94;5016191;28;99632;-26
2023/08/20 05:34:37;;;;;;;2.25;0.63;;;;;;;18.30;82.01;102285.59;5015957;28;99304;-28
2023/08/20 05:37:06;;;;;;;2.30;0.80;;;;;;;18.35;81.72;102281.56;5016422;28;96685;-27
2023/08/20 05:39:38;;;;;;;1.42;0.73;;;;;;;18.39;81.98;102282.19;5014712;28;96787;-26
2023/08/20 05:42:03;;;;;;;2.92;0.95;;;;;;;18.36;82.39;102285.19;5014460;28;101367;-26
2023/08/20 05:44:29;;;;;;;2.20;0.77;;;;;;;18.33;82.99;102285.38;5016402;28;97730;-26
2023/08/20 05:46:54;;;;;;;4.80;0.90;;;;;;;18.38;82.58;102283.19;5016562;28;96769;-26
2023/08/20 05:49:19;;;;;;;2.17;0.70;;;;;;;18.37;82.58;102274.06;5016128;28;96879;-26
2023/08/20 05:51:45;;;;;;;2.45;0.47;;;;;;;18.38;82.38;102277.72;5015600;28;97928;-26
2023/08/20 05:54:11;;;;;;;2.58;0.77;;;;;;;18.50;82.17;102289.69;5016082;28;97821;-26
2023/08/20 05:56:37;;;;;;;2.33;0.75;;;;;;;18.51;82.24;102284.06;5013290;28;96658;-26
2023/08/20 05:59:03;;;;;;;2.13;0.93;;;;;;;18.60;81.89;102291.63;5016359;28;96801;-26
2023/08/20 06:01:28;;;;;;;4.05;1.05;;;;;;;18.61;82.36;102279.66;5015869;28;97944;-26
2023/08/20 06:03:53;;;;;;;3.88;1.05;;;;;;;18.70;81.50;102280.84;5015946;28;97280;-26
2023/08/20 06:06:19;;;;;;;1.33;0.70;;;;;;;18.74;81.45;102281.53;5016221;28;96662;-27
2023/08/20 06:08:44;;;;;;;2.97;0.63;;;;;;;18.83;81.32;102286.34;5016650;28;96792;-26
2023/08/20 06:11:09;;;;;;;2.10;1.08;;;;;;;18.86;81.85;102291.63;5014912;28;99432;-27
2023/08/20 06:13:35;;;;;;;4.05;0.70;;;;;;;18.91;81.49;102289.41;5015841;28;97905;-26
2023/08/20 06:16:00;;;;;;;3.30;0.90;;;;;;;18.91;81.64;102292.16;4997573;28;96552;-26
2023/08/20 06:18:26;;;;;;;2.28;0.75;;;;;;;18.99;81.35;102289.72;4996008;28;96863;-26
2023/08/20 06:20:51;;;;;;;1.83;0.57;;;;;;;19.00;81.08;102288.75;4994200;28;99791;-26
2023/08/20 06:23:16;;;;;;;3.75;0.77;;;;;;;19.07;81.11;102289.16;4995628;28;97849;-26
2023/08/20 06:25:42;;;;;;;2.55;1.00;;;;;;;19.15;80.89;102283.09;4995773;28;96769;-26
2023/08/20 06:28:09;;;;;;;4.43;1.00;;;;;;;19.24;81.40;102285.16;4996263;28;96771;-27
2023/08/20 06:30:35;;;;;;;1.90;0.65;;;;;;;19.36;80.86;102294.34;4995368;28;97400;-26
2023/08/20 06:33:00;;;;;;;1.88;0.52;;;;;;;19.45;80.58;102294.50;4995894;28;97841;-27
2023/08/20 06:35:25;;;;;;;2.08;0.60;;;;;;;19.55;80.36;102300.19;4995506;28;96669;-26
2023/08/20 06:37:51;;;;;;;1.67;0.77;;;;;;;19.58;80.13;102288.06;4995390;28;96872;-26
2023/08/20 06:40:16;;;;;;;5.05;0.80;;;;;;;19.71;80.10;102297.16;4994443;28;99395;-26
2023/08/20 06:42:42;;;;;;;2.35;0.90;;;;;;;19.83;79.75;102295.31;4995340;28;97849;-26
2023/08/20 06:45:08;;;;;;;2.20;0.88;;;;;;;19.89;79.95;102303.09;4995438;28;96626;-26
2023/08/20 06:47:33;;;;;;;1.27;0.68;;;;;;;19.99;79.58;102292.25;4977635;28;96992;-26
2023/08/20 06:49:59;;;;;;;1.85;0.85;;;;;;;20.13;79.25;102298.41;4995249;28;97438;-26
2023/08/20 06:52:24;;;;;;;1.83;0.45;;;;;;;20.24;78.73;102293.97;4994857;28;99183;-27
2023/08/20 06:54:49;;;;;;;2.95;0.90;;;;;;;20.33;78.33;102302.34;4995305;28;97254;-27
2023/08/20 06:57:15;;;;;;;2.75;0.98;;;;;;;20.46;78.23;102291.22;4995577;28;96864;-27
2023/08/20 06:59:42;;;;;;;2.30;0.75;;;;;;;20.65;77.69;102303.53;4995088;28;97981;-28
2023/08/20 07:02:07;;;;;;;5.57;0.85;;;;;;;20.79;77.32;102304.16;4993475;28;101649;-26
2023/08/20 07:04:33;;;;;;;2.03;0.75;;;;;;;20.99;77.04;102315.41;4995097;28;96619;-27
2023/08/20 07:06:58;;;;;;;3.63;0.98;;;;;;;21.10;75.97;102311.78;4994826;28;96879;-26
2023/08/20 07:09:24;;;;;;;4.85;0.90;;;;;;;21.21;76.09;102318.16;4994469;28;99418;-27
2023/08/20 07:11:49;;;;;;;2.15;0.60;;;;;;;21.29;75.95;102313.88;4994636;28;97814;-26
2023/08/20 07:14:14;;;;;;;4.15;0.90;;;;;;;21.48;75.65;102316.00;4995734;28;96800;-26
2023/08/20 07:16:40;;;;;;;1.45;0.70;;;;;;;21.68;74.97;102322.56;5015166;28;96736;-27
2023/08/20 07:19:05;;;;;;;4.60;0.90;;;;;;;21.84;74.47;102334.06;5014467;28;99444;-26
2023/08/20 07:21:30;;;;;;;4.25;0.77;;;;;;;21.99;73.91;102329.94;5014894;28;99121;-27
2023/08/20 07:23:56;;;;;;;4.20;0.68;;;;;;;22.15;73.23;102332.25;5014896;28;96500;-26
2023/08/20 07:26:21;;;;;;;7.22;1.67;;;;;;;22.29;72.93;102328.34;5014730;28;96870;-27
2023/08/20 07:28:59;;;;;;;1.13;0.60;;;;;;;22.40;72.53;102333.75;5014103;28;98053;-26
2023/08/20 07:31:29;;;;;;;2.97;0.65;;;;;;;22.56;72.20;102337.94;5013219;28;101055;-26
2023/08/20 07:33:56;;;;;;;6.13;1.02;;;;;;;22.66;72.07;102344.38;5014838;28;96614;-26
2023/08/20 07:36:22;;;;;;;2.13;0.68;;;;;;;22.78;71.07;102335.00;5014601;28;96765;-28
2023/08/20 07:38:47;;;;;;;2.50;0.80;;;;;;;22.92;70.98;102341.19;5012559;28;101269;-26
2023/08/20 07:41:13;;;;;;;1.98;0.52;;;;;;;22.97;70.01;102330.56;5014525;28;97795;-27
2023/08/20 07:43:39;;;;;;;2.20;0.70;;;;;;;23.11;70.21;102346.81;5014670;28;96811;-26
2023/08/20 07:46:06;;;;;;;4.30;0.60;;;;;;;23.20;69.88;102340.44;5013690;28;96915;-26
2023/08/20 07:48:32;;;;;;;4.43;0.98;;;;;;;23.30;69.92;102346.00;5012839;28;100762;-27
2023/08/20 07:50:58;;;;;;;5.72;1.00;;;;;;;23.44;69.18;102339.19;5014262;28;97804;-27
2023/08/20 07:53:23;;;;;;;3.08;0.75;;;;;;;23.48;69.28;102346.19;5014043;28;96622;-26
2023/08/20 07:55:49;;;;;;;3.75;0.82;;;;;;;23.61;68.23;102346.78;5014449;28;96735;-26
2023/08/20 07:58:14;;;;;;;0.90;0.55;;;;;;;23.72;68.67;102345.81;4996308;28;101194;-26
2023/08/20 08:00:40;;;;;;;4.20;1.50;;;;;;;23.75;67.45;102351.06;5014203;28;97862;-27
2023/08/20 08:03:05;;;;;;;1.05;0.40;;;;;;;23.80;67.69;102348.75;5014596;28;96716;-27
2023/08/20 08:05:30;;;;;;;2.10;0.50;;;;;;;23.95;68.06;102352.84;5014565;28;96780;-27
2023/08/20 08:07:56;;;;;;;6.13;0.88;;;;;;;24.01;66.92;102354.13;5013677;28;99390;-26
2023/08/20 08:10:21;;;;;;;3.08;0.55;;;;;;;24.13;66.84;102364.03;5014350;28;97750;-27
2023/08/20 08:12:47;;;;;;;3.17;0.70;;;;;;;24.20;66.60;102356.03;5014359;28;96556;-27
2023/08/20 08:15:13;;;;;;;2.78;0.90;;;;;;;24.33;66.41;102359.34;5013762;28;96844;-26
2023/08/20 08:17:38;;;;;;;4.20;0.85;;;;;;;24.37;66.36;102346.97;5013861;28;97380;-27
2023/08/20 08:20:04;;;;;;;4.47;0.80;;;;;;;24.44;65.54;102361.09;5016726;28;97326;-27
2023/08/20 08:22:29;;;;;;;2.80;0.80;;;;;;;24.58;64.76;102360.66;5017493;28;96655;-27
2023/08/20 08:24:55;;;;;;;2.05;0.80;;;;;;;24.64;64.85;102359.19;5007956;28;97094;-29
2023/08/20 08:27:20;;;;;;;4.75;1.10;;;;;;;24.69;65.32;102359.59;4995714;28;99045;-26
2023/08/20 08:29:46;;;;;;;1.45;0.70;;;;;;;24.86;64.53;102365.38;4996047;28;97839;-27
2023/08/20 08:32:11;;;;;;;6.35;0.95;;;;;;;24.86;63.62;102341.34;4997761;28;96605;-30
2023/08/20 08:34:36;;;;;;;3.53;0.85;;;;;;;25.04;62.97;102359.94;4996816;28;96947;-26
2023/08/20 08:37:02;;;;;;;1.88;0.55;;;;;;;25.08;63.99;102358.59;4997062;28;97477;-27
2023/08/20 08:39:27;;;;;;;1.85;0.63;;;;;;;25.08;63.13;102364.16;4997290;28;97255;-26
2023/08/20 08:42:02;;;;;;;4.80;0.73;;;;;;;25.28;62.96;102370.50;4996013;28;97766;-26
2023/08/20 08:44:28;;;;;;;4.68;0.70;;;;;;;25.28;63.42;102357.50;4995991;28;96698;-27
2023/08/20 08:46:53;;;;;;;3.08;0.70;;;;;;;25.34;62.51;102369.91;4995575;28;99519;-26
2023/08/20 08:49:19;;;;;;;4.20;0.80;;;;;;;25.42;62.86;102368.06;4997068;28;97782;-26
2023/08/20 08:51:45;;;;;;;2.45;0.60;;;;;;;25.57;61.63;102373.97;4997191;28;96644;-27
2023/08/20 08:54:12;;;;;;;3.05;0.80;;;;;;;25.72;61.81;102365.09;4995763;28;96882;-26
2023/08/20 08:56:37;;;;;;;4.50;0.50;;;;;;;25.74;61.25;102355.63;4996835;28;97510;-26
2023/08/20 08:59:03;;;;;;;2.22;0.70;;;;;;;25.95;61.59;102368.31;4997185;28;97769;-27
2023/08/20 09:01:28;;;;;;;6.57;0.80;;;;;;;25.96;60.79;102364.53;4997083;28;96494;-28
2023/08/20 09:03:54;;;;;;;2.92;0.85;;;;;;;26.11;60.26;102368.50;4996716;28;96747;-26
2023/08/20 09:06:19;;;;;;;4.28;0.93;;;;;;;26.04;59.64;102379.34;4996285;28;98519;-26
2023/08/20 09:08:45;;;;;;;1.40;0.50;;;;;;;26.11;59.49;102371.25;4996936;28;97756;-27
2023/08/20 09:11:10;;;;;;;4.53;0.57;;;;;;;26.07;58.60;102361.50;4996987;28;96529;-27
2023/08/20 09:13:37;;;;;;;3.90;0.68;;;;;;;26.22;58.45;102371.03;4997122;28;96827;-26
2023/08/20 09:16:05;;;;;;;3.47;0.80;;;;;;;26.17;57.74;102370.63;4994683;28;101231;-27
2023/08/20 09:18:31;;;;;;;1.00;0.47;;;;;;;26.24;58.48;102366.19;4994885;28;100819;-26
2023/08/20 09:20:58;;;;;;;3.05;0.60;;;;;;;26.43;58.58;102380.91;4996937;28;96551;-26
2023/08/20 09:23:28;;;;;;;2.28;0.40;;;;;;;26.40;57.81;102361.78;4995759;28;96936;-27
2023/08/20 09:25:53;;;;;;;3.83;0.85;;;;;;;26.60;58.06;102374.50;4994950;28;101975;-26
2023/08/20 09:28:19;;;;;;;2.10;0.80;;;;;;;26.76;56.96;102372.84;4996544;28;97868;-27
2023/08/20 09:31:01;;;;;;;3.70;0.73;;;;;;;26.89;57.29;102357.47;4996032;28;96514;-27
2023/08/20 09:33:26;;;;;;;0.77;0.43;;;;;;;26.97;56.38;102373.31;4995099;28;96893;-26
2023/08/20 09:35:53;;;;;;;2.85;0.77;;;;;;;27.04;55.81;102360.47;4996022;28;98942;-26
2023/08/20 09:38:23;;;;;;;3.00;0.65;;;;;;;27.04;55.25;102368.81;4994735;28;100935;-26
2023/08/20 09:40:52;;;;;;;3.67;0.80;;;;;;;27.08;54.93;102373.03;4996581;28;96774;-26
2023/08/20 09:43:19;;;;;;;2.45;0.60;;;;;;;27.08;56.30;102367.47;4995014;28;96882;-27
2023/08/20 09:45:47;;;;;;;6.35;0.88;;;;;;;27.13;56.05;102375.31;4994723;28;100039;-26
2023/08/20 09:48:20;;;;;;;2.47;0.90;;;;;;;27.25;56.25;102368.44;4996444;28;97334;-27
2023/08/20 09:50:47;;;;;;;2.13;0.90;;;;;;;27.38;55.39;102376.31;4996218;28;96502;-26
2023/08/20 09:53:26;;;;;;;5.88;1.13;;;;;;;27.44;54.84;102385.91;4995041;28;96862;-26
2023/08/20 09:55:52;;;;;;;1.38;0.50;;;;;;;27.43;55.66;102382.25;4994119;28;101322;-26
2023/08/20 09:58:25;;;;;;;2.45;0.60;;;;;;;27.50;54.72;102371.31;4994266;28;101114;-27
2023/08/20 10:00:51;;;;;;;2.38;0.70;;;;;;;27.62;54.58;102380.22;4994860;28;96720;-26
2023/08/20 10:03:19;;;;;;;2.63;0.50;;;;;;;27.61;54.93;102359.88;4996071;28;96467;-26
2023/08/20 10:05:47;;;;;;;1.92;0.80;;;;;;;27.70;54.42;102369.13;4977950;28;101914;-26
2023/08/20 10:08:14;;;;;;;2.92;0.98;;;;;;;27.88;54.34;102378.22;4994400;28;99219;-26
2023/08/20 10:10:39;;;;;;;2.85;0.57;;;;;;;27.95;53.68;102373.72;4994332;28;96730;-26
2023/08/20 10:13:05;;;;;;;3.10;0.70;;;;;;;27.99;54.33;102378.97;4995077;28;96887;-26
2023/08/20 10:15:31;;;;;;;4.22;0.88;;;;;;;27.92;53.56;102375.97;4994852;28;99687;-27
2023/08/20 10:17:57;;;;;;;3.95;0.93;;;;;;;28.02;53.82;102373.91;4994293;28;101077;-26
2023/08/20 10:20:23;;;;;;;1.65;0.68;;;;;;;27.95;53.13;102365.34;4994022;28;96701;-26
2023/08/20 10:22:51;;;;;;;5.28;1.00;;;;;;;27.91;53.62;102375.13;4995999;28;96796;-27
2023/08/20 10:25:24;;;;;;;6.18;0.93;;;;;;;28.08;51.97;102372.31;4993745;28;101190;-26
2023/08/20 10:27:50;;;;;;;2.17;0.82;;;;;;;28.24;53.00;102369.53;4994064;28;99051;-28
2023/08/20 10:30:25;;;;;;;3.03;0.80;;;;;;;28.27;52.18;102369.22;4995832;28;96526;-28
2023/08/20 10:32:56;;;;;;;2.78;1.00;;;;;;;28.32;51.20;102365.91;4995597;28;96765;-27
2023/08/20 10:35:28;;;;;;;;;;;;;;;28.43;50.62;102373.03;4994386;28;99036;-27
2023/08/20 10:38:07;;;;;;;4.65;1.05;;;;;;;28.45;50.56;102371.81;4995606;28;97753;-26
2023/08/20 10:40:58;;;;;;;2.03;0.88;;;;;;;28.52;51.24;102372.88;4995504;28;96594;-27
2023/08/20 10:43:28;;;;;;;2.73;1.00;;;;;;;28.46;50.54;102370.81;4993875;28;96784;-27
2023/08/20 10:46:03;;;;;;;2.20;0.77;;;;;;;28.36;49.73;102364.50;4993265;28;101560;-26
2023/08/20 10:48:29;;;;;;;2.45;0.75;;;;;;;28.23;51.77;102359.47;4995341;28;97853;-27
2023/08/20 10:50:55;;;;;;;2.33;0.63;;;;;;;28.32;51.61;102374.28;4994149;28;96654;-26
2023/08/20 10:53:22;;;;;;;2.70;0.70;;;;;;;28.50;51.48;102363.81;4994006;28;96949;-27
2023/08/20 10:55:48;;;;;;;2.67;0.55;;;;;;;28.61;50.86;102365.38;4993536;28;101293;-26
2023/08/20 10:58:14;;;;;;;3.38;0.70;;;;;;;28.75;50.87;102373.03;4993517;28;100869;-27
2023/08/20 11:00:39;;;;;;;2.40;0.68;;;;;;;28.69;51.21;102365.34;4995234;28;96596;-27
2023/08/20 11:03:05;;;;;;;4.47;0.80;;;;;;;28.78;51.24;102361.50;4995844;28;96798;-26
2023/08/20 11:05:31;;;;;;;3.40;0.77;;;;;;;29.01;50.38;102358.84;4994826;28;99610;-26
2023/08/20 11:07:57;;;;;;;2.40;0.80;;;;;;;28.68;48.08;102359.97;4994761;28;99777;-26
2023/08/20 11:10:23;;;;;;;3.35;0.65;;;;;;;28.68;50.09;102352.47;4992945;28;96735;-26
2023/08/20 11:12:49;;;;;;;3.42;0.90;;;;;;;28.63;50.50;102351.25;4993751;28;96831;-27
2023/08/20 11:15:14;;;;;;;4.03;0.90;;;;;;;28.77;50.56;102358.88;4994040;28;97930;-27
2023/08/20 11:17:49;;;;;;;1.90;0.82;;;;;;;28.71;49.64;102357.69;4995203;28;96662;-26
2023/08/20 11:20:15;;;;;;;1.80;0.70;;;;;;;28.51;50.83;102354.44;4993750;28;96716;-26
2023/08/20 11:22:41;;;;;;;2.25;0.80;;;;;;;28.21;51.34;102355.09;4995129;28;96787;-26